Time;durP1;ratioP1;P1;durP2;ratioP2;P2;SDS_P1;SDS_P2;PMS_P1;PMS_P2;Temp;Humidity;BMP_temperature;BMP_pressure;BME280_temperature;BME280_humidity;BME280_pressure;Samples;Min_cycle;Max_cycle;Signal;HPM_P1;HPM_P2
2022/03/24 00:01:06;;;;;;;37.08;21.05;;;12.50;35.70;;;;;;4983612;28;20051;-43
2022/03/24 00:03:33;;;;;;;47.50;22.42;;;12.50;35.70;;;;;;4984043;28;20054;-42
2022/03/24 00:06:01;;;;;;;42.05;22.33;;;12.50;35.80;;;;;;4982812;28;20065;-42
2022/03/24 00:08:28;;;;;;;40.63;20.80;;;12.40;35.80;;;;;;4984632;28;20062;-41
2022/03/24 00:10:56;;;;;;;43.15;22.35;;;12.40;35.80;;;;;;4983516;28;20459;-42
2022/03/24 00:13:23;;;;;;;46.00;23.63;;;12.40;35.80;;;;;;4984873;28;20058;-42
2022/03/24 00:15:52;;;;;;;45.90;22.23;;;12.40;35.90;;;;;;4980645;28;20062;-42
2022/03/24 00:18:20;;;;;;;40.22;22.85;;;12.40;36.00;;;;;;4984910;28;20513;-42
2022/03/24 00:20:47;;;;;;;39.10;20.33;;;12.40;36.00;;;;;;4982926;28;20056;-42
2022/03/24 00:23:15;;;;;;;35.85;20.25;;;12.30;36.00;;;;;;4982477;28;20054;-42
2022/03/24 00:25:42;;;;;;;38.30;20.50;;;12.30;36.00;;;;;;4978862;28;20058;-42
2022/03/24 00:28:10;;;;;;;39.83;19.88;;;12.30;36.00;;;;;;4985033;28;20054;-42
2022/03/24 00:30:37;;;;;;;37.83;19.77;;;12.30;36.00;;;;;;4982743;28;20053;-46
2022/03/24 00:33:07;;;;;;;40.38;21.13;;;12.30;36.00;;;;;;4981821;28;20054;-42
2022/03/24 00:35:34;;;;;;;43.25;22.42;;;12.20;36.00;;;;;;4980314;28;20482;-42
2022/03/24 00:38:01;;;;;;;40.60;20.60;;;12.20;36.00;;;;;;4982244;28;20062;-43
2022/03/24 00:40:29;;;;;;;41.03;20.88;;;12.20;36.10;;;;;;4983402;28;20050;-42
2022/03/24 00:42:59;;;;;;;40.47;21.60;;;12.20;36.10;;;;;;4983640;28;20057;-43
2022/03/24 00:45:27;;;;;;;44.35;22.77;;;12.10;36.10;;;;;;4981052;28;20058;-42
2022/03/24 00:47:54;;;;;;;46.35;23.88;;;12.10;36.20;;;;;;4983491;28;20058;-42
2022/03/24 00:50:23;;;;;;;41.88;22.27;;;12.10;36.30;;;;;;4980696;28;20734;-42
2022/03/24 00:52:51;;;;;;;46.92;23.48;;;12.10;36.40;;;;;;4984506;28;20065;-42
2022/03/24 00:55:19;;;;;;;41.28;22.13;;;12.00;36.40;;;;;;4979427;28;20054;-44
2022/03/24 00:57:49;;;;;;;42.70;22.40;;;12.00;36.50;;;;;;4982763;28;20125;-42
2022/03/24 01:00:20;;;;;;;49.95;23.58;;;12.00;36.60;;;;;;4981904;28;20085;-42
2022/03/24 01:02:49;;;;;;;48.85;24.30;;;11.90;36.60;;;;;;4984436;28;20069;-42
2022/03/24 01:05:17;;;;;;;44.80;24.05;;;11.90;36.70;;;;;;4979992;28;20057;-43
2022/03/24 01:07:48;;;;;;;55.83;25.63;;;11.90;36.80;;;;;;4976063;28;20269;-42
2022/03/24 01:10:18;;;;;;;49.85;24.75;;;11.90;36.90;;;;;;4982577;28;20062;-42
2022/03/24 01:12:46;;;;;;;46.92;23.48;;;11.80;36.90;;;;;;4982549;28;20525;-42
2022/03/24 01:15:17;;;;;;;41.83;22.30;;;11.80;36.90;;;;;;4981181;28;20550;-42
2022/03/24 01:17:47;;;;;;;42.88;22.00;;;11.70;36.90;;;;;;4982169;28;20373;-42
2022/03/24 01:20:16;;;;;;;45.70;22.23;;;11.70;36.90;;;;;;4983594;28;20073;-42
2022/03/24 01:22:44;;;;;;;42.92;22.30;;;11.70;37.00;;;;;;4981155;28;20384;-43
2022/03/24 01:25:14;;;;;;;54.53;25.50;;;11.70;37.10;;;;;;4980560;28;20410;-43
2022/03/24 01:27:41;;;;;;;42.22;22.00;;;11.60;37.20;;;;;;4981515;28;20070;-42
2022/03/24 01:30:10;;;;;;;39.85;21.08;;;11.60;37.20;;;;;;4982718;28;20414;-42
2022/03/24 01:32:38;;;;;;;38.30;19.60;;;11.60;37.20;;;;;;4981833;28;20050;-43
2022/03/24 01:35:07;;;;;;;45.53;21.00;;;11.50;37.20;;;;;;4981228;28;20055;-44
2022/03/24 01:37:35;;;;;;;41.88;21.00;;;11.50;37.30;;;;;;4982750;28;20088;-42
2022/03/24 01:40:04;;;;;;;43.60;22.73;;;11.50;37.20;;;;;;4982060;28;20407;-43
2022/03/24 01:42:35;;;;;;;42.17;22.17;;;11.50;37.30;;;;;;4979993;28;20713;-42
2022/03/24 01:45:05;;;;;;;47.60;23.60;;;11.50;37.30;;;;;;4980032;28;20058;-44
2022/03/24 01:47:32;;;;;;;46.25;22.58;;;11.40;37.40;;;;;;4983718;28;20054;-42
2022/03/24 01:50:00;;;;;;;46.05;23.48;;;11.40;37.40;;;;;;4981163;28;20077;-45
2022/03/24 01:52:28;;;;;;;42.85;22.17;;;11.40;37.50;;;;;;4981160;28;20046;-43
2022/03/24 01:54:58;;;;;;;43.17;22.80;;;11.40;37.60;;;;;;4983214;28;20065;-43
2022/03/24 01:57:27;;;;;;;45.03;22.88;;;11.40;37.70;;;;;;4983053;28;20054;-42
2022/03/24 01:59:56;;;;;;;55.55;26.50;;;11.30;37.70;;;;;;4981291;28;20070;-44
2022/03/24 02:02:24;;;;;;;47.00;23.13;;;11.30;37.80;;;;;;4982384;28;20069;-42
2022/03/24 02:04:51;;;;;;;43.20;22.48;;;11.30;37.90;;;;;;4981764;28;20054;-42
2022/03/24 02:07:20;;;;;;;45.47;23.42;;;11.20;37.90;;;;;;4978385;28;20054;-45
2022/03/24 02:09:48;;;;;;;46.70;25.17;;;11.20;38.00;;;;;;4982417;28;20077;-43
2022/03/24 02:12:15;;;;;;;50.47;25.33;;;11.20;38.20;;;;;;4982712;28;20422;-42
2022/03/24 02:14:43;;;;;;;53.17;25.67;;;11.20;38.30;;;;;;4978219;28;21322;-43
2022/03/24 02:17:12;;;;;;;44.30;22.95;;;11.10;38.40;;;;;;4982323;28;20061;-47
2022/03/24 02:19:40;;;;;;;45.15;24.52;;;11.10;38.50;;;;;;4982710;28;20065;-42
2022/03/24 02:22:12;;;;;;;49.33;25.70;;;11.10;38.60;;;;;;4981943;28;20052;-42
2022/03/24 02:24:39;;;;;;;48.95;25.48;;;11.00;38.80;;;;;;4978085;28;20046;-43
2022/03/24 02:27:08;;;;;;;46.58;24.45;;;11.00;38.80;;;;;;4982821;28;20077;-43
2022/03/24 02:29:35;;;;;;;44.55;23.75;;;10.90;38.80;;;;;;4982056;28;20055;-43
2022/03/24 02:32:07;;;;;;;47.70;23.80;;;10.90;39.00;;;;;;4979431;28;20049;-43
2022/03/24 02:34:40;;;;;;;44.58;23.08;;;10.90;39.10;;;;;;4980539;28;20058;-42
2022/03/24 02:37:09;;;;;;;58.65;28.23;;;10.80;39.20;;;;;;4978916;28;20054;-42
2022/03/24 02:39:40;;;;;;;40.55;22.38;;;10.70;39.40;;;;;;4979652;28;20058;-43
2022/03/24 02:42:09;;;;;;;42.53;23.17;;;10.70;39.30;;;;;;4982488;28;20050;-42
2022/03/24 02:44:37;;;;;;;42.83;22.38;;;10.60;39.30;;;;;;4980975;28;20057;-42
2022/03/24 02:47:06;;;;;;;43.95;21.85;;;10.60;39.40;;;;;;4980600;28;20494;-42
2022/03/24 02:49:34;;;;;;;44.17;23.48;;;10.60;39.50;;;;;;4980277;28;20057;-42
2022/03/24 02:52:02;;;;;;;43.35;23.55;;;10.50;39.60;;;;;;4982281;28;20069;-42
2022/03/24 02:54:31;;;;;;;39.53;22.05;;;10.50;39.70;;;;;;4981454;28;20521;-43
2022/03/24 02:57:00;;;;;;;41.03;22.65;;;10.50;39.70;;;;;;4982437;28;20414;-42
2022/03/24 02:59:28;;;;;;;41.70;21.80;;;10.40;40.00;;;;;;4981994;28;20054;-42
2022/03/24 03:01:59;;;;;;;42.03;23.13;;;10.40;39.90;;;;;;4981004;28;20069;-47
2022/03/24 03:04:27;;;;;;;45.35;23.77;;;10.40;40.00;;;;;;4982341;28;20050;-42
2022/03/24 03:06:57;;;;;;;48.13;23.95;;;10.30;40.00;;;;;;4980725;28;20333;-43
2022/03/24 03:09:24;;;;;;;40.45;22.20;;;10.30;40.10;;;;;;4980863;28;20486;-42
2022/03/24 03:11:53;;;;;;;44.75;23.67;;;10.30;40.20;;;;;;4981859;28;20057;-42
2022/03/24 03:14:21;;;;;;;40.22;21.80;;;10.20;40.30;;;;;;4979657;28;20387;-42
2022/03/24 03:16:49;;;;;;;46.88;23.83;;;10.20;40.30;;;;;;4980895;28;20495;-42
2022/03/24 03:19:19;;;;;;;43.28;23.38;;;10.20;40.40;;;;;;4984950;28;20054;-42
2022/03/24 03:21:48;;;;;;;40.60;22.85;;;10.20;40.50;;;;;;4985919;28;20461;-42
2022/03/24 03:24:16;;;;;;;49.95;25.55;;;10.10;40.50;;;;;;4985410;28;20053;-42
2022/03/24 03:26:44;;;;;;;45.80;23.58;;;10.10;40.70;;;;;;4986200;28;20517;-42
2022/03/24 03:29:12;;;;;;;43.58;22.98;;;10.10;40.80;;;;;;4983675;28;20058;-42
2022/03/24 03:31:41;;;;;;;41.50;22.95;;;10.00;40.80;;;;;;4984204;28;20069;-43
2022/03/24 03:34:11;;;;;;;41.25;23.23;;;10.00;41.00;;;;;;4983261;28;20077;-42
2022/03/24 03:36:39;;;;;;;43.90;24.25;;;10.00;41.10;;;;;;4985641;28;20050;-42
2022/03/24 03:39:08;;;;;;;41.97;23.02;;;10.00;41.20;;;;;;4986460;28;20058;-42
2022/03/24 03:41:37;;;;;;;40.38;21.25;;;9.90;41.20;;;;;;4984816;28;20061;-42
2022/03/24 03:44:06;;;;;;;44.85;22.42;;;9.90;41.30;;;;;;4983618;28;20072;-42
2022/03/24 03:46:33;;;;;;;41.63;21.17;;;9.90;41.40;;;;;;4984142;28;20517;-42
2022/03/24 03:49:02;;;;;;;49.45;24.77;;;9.80;41.50;;;;;;4983940;28;20058;-43
2022/03/24 03:51:31;;;;;;;45.13;23.98;;;9.80;41.80;;;;;;4985557;28;20058;-42
2022/03/24 03:53:59;;;;;;;45.20;22.55;;;9.80;41.90;;;;;;4983599;28;20046;-44
2022/03/24 03:56:27;;;;;;;40.63;22.73;;;9.70;41.90;;;;;;4985354;28;20506;-42
2022/03/24 03:58:54;;;;;;;42.42;22.13;;;9.70;41.80;;;;;;4985545;28;20058;-43
2022/03/24 04:01:22;;;;;;;42.13;23.67;;;9.70;41.90;;;;;;4984570;28;20057;-42
2022/03/24 04:03:49;;;;;;;43.88;23.45;;;9.60;41.90;;;;;;4984659;28;20050;-42
2022/03/24 04:06:18;;;;;;;55.15;24.48;;;9.60;41.90;;;;;;4982897;28;20647;-42
2022/03/24 04:08:46;;;;;;;41.47;23.30;;;9.60;42.10;;;;;;4982116;28;20058;-44
2022/03/24 04:11:13;;;;;;;40.42;21.40;;;9.50;42.10;;;;;;4984936;28;20479;-42
2022/03/24 04:13:42;;;;;;;38.78;22.90;;;9.50;42.10;;;;;;4984734;28;20062;-42
2022/03/24 04:16:12;;;;;;;39.13;22.17;;;9.50;42.20;;;;;;4983820;28;20050;-42
2022/03/24 04:18:40;;;;;;;37.50;20.75;;;9.40;42.20;;;;;;4985067;28;20050;-42
2022/03/24 04:21:08;;;;;;;45.10;22.98;;;9.40;42.30;;;;;;4984792;28;20058;-42
2022/03/24 04:23:38;;;;;;;42.90;22.70;;;9.40;42.40;;;;;;4983151;28;20050;-42
2022/03/24 04:26:07;;;;;;;49.90;22.98;;;9.30;42.50;;;;;;4983282;28;20537;-42
2022/03/24 04:28:35;;;;;;;42.97;23.67;;;9.30;42.60;;;;;;4983671;28;20499;-43
2022/03/24 04:31:03;;;;;;;41.92;22.75;;;9.30;42.70;;;;;;4982024;28;20813;-42
2022/03/24 04:33:30;;;;;;;42.05;23.35;;;9.30;42.80;;;;;;4984357;28;20058;-42
2022/03/24 04:35:59;;;;;;;38.42;22.40;;;9.20;42.90;;;;;;4980895;28;20510;-42
2022/03/24 04:38:27;;;;;;;51.92;23.52;;;9.20;43.00;;;;;;4982916;28;20054;-42
2022/03/24 04:40:56;;;;;;;49.42;23.17;;;9.20;43.10;;;;;;4981997;28;20054;-42
2022/03/24 04:43:24;;;;;;;45.20;23.70;;;9.20;43.10;;;;;;4984166;28;20047;-43
2022/03/24 04:45:52;;;;;;;41.08;23.08;;;9.10;43.10;;;;;;4976538;28;20586;-42
2022/03/24 04:48:20;;;;;;;41.60;22.25;;;9.10;43.20;;;;;;4982490;28;20055;-42
2022/03/24 04:50:47;;;;;;;48.15;24.90;;;9.10;43.30;;;;;;4982896;28;20065;-42
2022/03/24 04:53:15;;;;;;;41.67;23.52;;;9.10;43.40;;;;;;4981926;28;20129;-45
2022/03/24 04:55:43;;;;;;;48.42;24.17;;;9.00;43.40;;;;;;4978080;28;20066;-42
2022/03/24 04:58:13;;;;;;;45.05;24.02;;;9.00;43.50;;;;;;4983946;28;20057;-42
2022/03/24 05:00:41;;;;;;;44.40;22.65;;;8.90;43.60;;;;;;4982034;28;20062;-42
2022/03/24 05:03:08;;;;;;;49.85;24.67;;;8.90;43.60;;;;;;4983580;28;20415;-42
2022/03/24 05:05:36;;;;;;;45.45;22.15;;;8.90;43.80;;;;;;4979812;28;20054;-42
2022/03/24 05:08:03;;;;;;;39.92;22.05;;;8.90;43.90;;;;;;4980193;28;20065;-42
2022/03/24 05:10:31;;;;;;;44.63;24.10;;;8.90;43.90;;;;;;4980702;28;20050;-44
2022/03/24 05:12:59;;;;;;;43.03;22.45;;;8.80;44.00;;;;;;4983746;28;20043;-43
2022/03/24 05:15:28;;;;;;;45.60;24.98;;;8.80;44.00;;;;;;4979494;28;20069;-42
2022/03/24 05:17:55;;;;;;;47.08;23.23;;;8.80;44.10;;;;;;4980058;28;20062;-43
2022/03/24 05:20:24;;;;;;;44.20;24.25;;;8.70;44.00;;;;;;4984455;28;20054;-43
2022/03/24 05:22:51;;;;;;;40.88;23.15;;;8.70;44.00;;;;;;4982606;28;20058;-42
2022/03/24 05:25:19;;;;;;;42.05;24.05;;;8.70;44.10;;;;;;4977156;28;20590;-42
2022/03/24 05:27:46;;;;;;;41.33;23.20;;;8.70;44.10;;;;;;4981659;28;20482;-42
2022/03/24 05:30:14;;;;;;;49.55;24.92;;;8.70;44.10;;;;;;4980582;28;20525;-42
2022/03/24 05:32:43;;;;;;;40.40;23.02;;;8.70;44.70;;;;;;4983297;28;20062;-45
2022/03/24 05:35:13;;;;;;;43.97;22.73;;;8.60;44.30;;;;;;4981672;28;20054;-42
2022/03/24 05:37:41;;;;;;;41.15;22.85;;;8.60;44.40;;;;;;4981996;28;20054;-43
2022/03/24 05:40:10;;;;;;;50.10;23.48;;;8.60;44.30;;;;;;4983524;28;20062;-43
2022/03/24 05:42:37;;;;;;;41.70;23.05;;;8.60;44.40;;;;;;4982810;28;20407;-44
2022/03/24 05:45:05;;;;;;;44.55;22.20;;;8.60;44.40;;;;;;4981723;28;20058;-43
2022/03/24 05:47:33;;;;;;;43.90;23.98;;;8.60;44.50;;;;;;4982235;28;20062;-43
2022/03/24 05:50:02;;;;;;;46.45;24.05;;;8.50;44.60;;;;;;4983323;28;20057;-43
2022/03/24 05:52:30;;;;;;;39.20;21.70;;;8.50;44.70;;;;;;4983294;28;20499;-43
2022/03/24 05:54:57;;;;;;;38.83;20.60;;;8.50;44.70;;;;;;4982477;28;20069;-42
2022/03/24 05:57:25;;;;;;;40.78;23.50;;;8.50;44.70;;;;;;4982734;28;20426;-43
2022/03/24 05:59:52;;;;;;;41.97;21.88;;;8.50;44.70;;;;;;4983097;28;20046;-43
2022/03/24 06:02:23;;;;;;;43.03;22.92;;;8.50;44.70;;;;;;4980323;28;20060;-43
2022/03/24 06:04:51;;;;;;;45.15;23.23;;;8.50;44.80;;;;;;4978701;28;20046;-42
2022/03/24 06:07:20;;;;;;;43.20;21.67;;;8.50;45.30;;;;;;4981860;28;20065;-42
2022/03/24 06:09:49;;;;;;;35.80;20.40;;;8.50;44.90;;;;;;4983517;28;20057;-43
2022/03/24 06:12:16;;;;;;;41.88;22.30;;;8.50;44.90;;;;;;4980142;28;20272;-48
2022/03/24 06:14:44;;;;;;;43.20;22.63;;;8.50;44.90;;;;;;4948914;28;20081;-46
2022/03/24 06:17:12;;;;;;;40.33;21.88;;;8.50;44.90;;;;;;4979844;28;20065;-43
2022/03/24 06:19:39;;;;;;;44.83;24.27;;;8.60;45.00;;;;;;4982608;28;20495;-42
2022/03/24 06:22:07;;;;;;;45.30;22.05;;;8.60;45.10;;;;;;4982107;28;20054;-43
2022/03/24 06:24:36;;;;;;;44.50;23.25;;;8.60;45.10;;;;;;4981679;28;20398;-43
2022/03/24 06:27:04;;;;;;;40.50;22.85;;;8.60;45.20;;;;;;4977536;28;20050;-44
2022/03/24 06:29:31;;;;;;;41.53;23.42;;;8.60;45.10;;;;;;4981539;28;20966;-42
2022/03/24 06:31:59;;;;;;;44.83;23.92;;;8.70;45.20;;;;;;4979689;28;20067;-42
2022/03/24 06:34:26;;;;;;;41.25;21.65;;;8.70;45.20;;;;;;4981592;28;20541;-43
2022/03/24 06:36:54;;;;;;;39.47;21.15;;;8.70;45.20;;;;;;4979262;28;20050;-45
2022/03/24 06:39:22;;;;;;;37.47;21.60;;;8.70;45.20;;;;;;4977758;28;20053;-43
2022/03/24 06:41:51;;;;;;;44.47;22.08;;;8.80;45.30;;;;;;4980477;28;20430;-42
2022/03/24 06:44:19;;;;;;;43.22;22.50;;;8.80;45.40;;;;;;4981839;28;20058;-45
2022/03/24 06:46:46;;;;;;;41.22;22.98;;;8.80;45.30;;;;;;4978831;28;20046;-42
2022/03/24 06:49:15;;;;;;;46.53;23.08;;;8.90;45.40;;;;;;4982828;28;20663;-42
2022/03/24 06:51:42;;;;;;;41.63;23.23;;;8.90;45.60;;;;;;4981171;28;20054;-42
2022/03/24 06:54:11;;;;;;;42.28;23.83;;;9.00;45.60;;;;;;4983032;28;20061;-43
2022/03/24 06:56:39;;;;;;;49.55;25.60;;;9.00;45.80;;;;;;4984439;28;20047;-42
2022/03/24 06:59:08;;;;;;;43.25;24.75;;;9.00;46.00;;;;;;4981672;28;20050;-42
2022/03/24 07:01:35;;;;;;;46.35;23.65;;;9.10;46.10;;;;;;4985008;28;20061;-42
2022/03/24 07:04:03;;;;;;;44.40;24.02;;;9.10;46.10;;;;;;4985665;28;20054;-43
2022/03/24 07:06:30;;;;;;;43.80;22.38;;;9.20;46.10;;;;;;4984505;28;20065;-42
2022/03/24 07:08:58;;;;;;;43.67;23.83;;;9.20;46.00;;;;;;4985670;28;20395;-42
2022/03/24 07:11:25;;;;;;;52.40;25.20;;;9.20;46.00;;;;;;4986705;28;20418;-42
2022/03/24 07:13:53;;;;;;;40.20;22.52;;;9.30;46.00;;;;;;4985919;28;20050;-42
2022/03/24 07:16:22;;;;;;;42.97;23.20;;;9.30;45.90;;;;;;4985663;28;20061;-42
2022/03/24 07:18:51;;;;;;;43.13;22.45;;;9.40;45.80;;;;;;4984602;28;20073;-44
2022/03/24 07:21:19;;;;;;;48.42;25.55;;;9.50;45.90;;;;;;4986531;28;20054;-43
2022/03/24 07:23:46;;;;;;;51.17;25.85;;;9.50;45.90;;;;;;4981516;28;20050;-43
2022/03/24 07:26:14;;;;;;;46.63;24.05;;;9.60;46.10;;;;;;4986359;28;20070;-42
2022/03/24 07:28:42;;;;;;;44.45;23.45;;;9.60;46.20;;;;;;4986223;28;20054;-46
2022/03/24 07:31:11;;;;;;;50.38;24.48;;;9.70;46.30;;;;;;4985051;28;20047;-42
2022/03/24 07:33:40;;;;;;;43.58;23.33;;;9.70;46.30;;;;;;4980753;28;20058;-42
2022/03/24 07:36:08;;;;;;;38.22;22.25;;;9.80;46.30;;;;;;4985088;28;20057;-44
2022/03/24 07:38:35;;;;;;;56.83;25.60;;;9.80;46.40;;;;;;4982527;28;20073;-42
2022/03/24 07:41:03;;;;;;;42.80;24.70;;;9.90;46.60;;;;;;4984489;28;20872;-42
2022/03/24 07:43:30;;;;;;;42.17;23.77;;;10.00;46.70;;;;;;4985017;28;20061;-42
2022/03/24 07:45:58;;;;;;;51.72;26.50;;;10.00;46.70;;;;;;4984242;28;20050;-42
2022/03/24 07:48:26;;;;;;;44.08;24.13;;;10.10;46.90;;;;;;4982022;28;20066;-43
2022/03/24 07:50:57;;;;;;;50.72;27.05;;;10.20;47.10;;;;;;4981992;28;20050;-42
2022/03/24 07:53:34;;;;;;;48.95;26.73;;;10.30;47.40;;;;;;4981103;28;20422;-42
2022/03/24 07:56:02;;;;;;;44.47;25.10;;;10.30;47.70;;;;;;4984988;28;20055;-42
2022/03/24 07:58:30;;;;;;;50.78;26.73;;;10.40;47.50;;;;;;4980185;28;20058;-43
2022/03/24 08:00:59;;;;;;;52.58;27.48;;;10.40;47.70;;;;;;4984227;28;20491;-42
2022/03/24 08:03:27;;;;;;;51.90;26.77;;;10.50;47.70;;;;;;4985112;28;20057;-42
2022/03/24 08:05:57;;;;;;;42.53;23.55;;;10.60;47.60;;;;;;4982314;28;20046;-43
2022/03/24 08:08:26;;;;;;;49.30;26.48;;;10.60;47.40;;;;;;4979691;28;20047;-43
2022/03/24 08:10:55;;;;;;;52.08;27.05;;;10.70;47.30;;;;;;4973403;28;20058;-42
2022/03/24 08:13:23;;;;;;;53.90;27.17;;;10.80;47.30;;;;;;4982380;28;20053;-42
2022/03/24 08:15:51;;;;;;;50.08;25.95;;;10.90;47.20;;;;;;4983475;28;20058;-42
2022/03/24 08:18:20;;;;;;;48.95;25.73;;;10.90;46.90;;;;;;4983100;28;20054;-42
2022/03/24 08:20:49;;;;;;;60.60;29.30;;;11.00;46.80;;;;;;4985388;28;20050;-42
2022/03/24 08:23:18;;;;;;;57.42;29.55;;;11.00;46.70;;;;;;4983122;28;20057;-43
2022/03/24 08:25:46;;;;;;;58.53;29.45;;;11.10;46.80;;;;;;4984352;28;20057;-46
2022/03/24 08:28:14;;;;;;;58.45;29.02;;;11.20;46.90;;;;;;4983310;28;20061;-42
2022/03/24 08:30:42;;;;;;;53.83;28.15;;;11.30;46.90;;;;;;4984841;28;21111;-42
2022/03/24 08:33:11;;;;;;;53.22;29.42;;;11.40;46.80;;;;;;4983530;28;20054;-42
2022/03/24 08:35:39;;;;;;;57.78;29.63;;;11.40;46.60;;;;;;4981160;28;20411;-43
2022/03/24 08:38:07;;;;;;;56.28;29.90;;;11.50;46.50;;;;;;4976130;28;20089;-42
2022/03/24 08:40:36;;;;;;;59.28;29.75;;;11.60;46.40;;;;;;4979040;28;20053;-44
2022/03/24 08:43:05;;;;;;;55.42;29.92;;;11.70;46.40;;;;;;4984237;28;20058;-42
2022/03/24 08:45:33;;;;;;;61.60;31.48;;;11.80;46.50;;;;;;4976353;28;20055;-43
2022/03/24 08:48:00;;;;;;;57.15;30.08;;;11.90;46.50;;;;;;4983115;28;20105;-43
2022/03/24 08:50:29;;;;;;;56.58;30.58;;;12.00;46.40;;;;;;4982048;28;20486;-42
2022/03/24 08:52:56;;;;;;;64.03;32.20;;;12.00;46.30;;;;;;4981354;28;20065;-42
2022/03/24 08:55:24;;;;;;;62.42;30.35;;;12.20;46.20;;;;;;4980999;28;20057;-43
2022/03/24 08:57:53;;;;;;;57.28;29.40;;;12.30;46.00;;;;;;4981566;28;20058;-42
2022/03/24 09:00:20;;;;;;;61.83;31.50;;;12.40;45.70;;;;;;4979726;28;20054;-42
2022/03/24 09:02:53;;;;;;;61.17;32.92;;;12.50;45.70;;;;;;4983517;28;20061;-42
2022/03/24 09:05:21;;;;;;;68.32;33.95;;;12.50;45.80;;;;;;4974600;28;20046;-45
2022/03/24 09:07:49;;;;;;;63.95;33.92;;;12.70;45.40;;;;;;4982606;28;20050;-42
2022/03/24 09:10:17;;;;;;;63.78;33.10;;;12.80;45.10;;;;;;4982739;28;20418;-42
2022/03/24 09:12:46;;;;;;;68.50;34.63;;;12.80;44.80;;;;;;4976746;28;20062;-42
2022/03/24 09:15:17;;;;;;;60.22;32.58;;;12.90;44.50;;;;;;4975321;28;20042;-42
2022/03/24 09:28:00;;;;;;;74.55;36.42;;;13.50;44.20;;;;;;4983933;28;20034;-43
2022/03/24 09:30:29;;;;;;;67.47;36.42;;;13.60;43.80;;;;;;4982247;28;20058;-44
2022/03/24 09:32:57;;;;;;;66.03;34.80;;;13.70;43.70;;;;;;4982035;28;20046;-42
2022/03/24 09:35:24;;;;;;;76.68;37.97;;;13.80;43.50;;;;;;4982186;28;20043;-42
2022/03/24 09:37:52;;;;;;;69.35;36.83;;;13.90;43.00;;;;;;4981390;28;20463;-42
2022/03/24 09:40:19;;;;;;;77.45;35.83;;;14.00;42.60;;;;;;4981500;28;20058;-42
2022/03/24 09:42:48;;;;;;;64.28;35.17;;;14.10;42.20;;;;;;4981748;28;20069;-43
2022/03/24 09:45:15;;;;;;;72.22;36.80;;;14.20;42.30;;;;;;4977762;28;21319;-43
2022/03/24 09:47:44;;;;;;;68.75;36.55;;;14.30;41.50;;;;;;4979822;28;20061;-43
2022/03/24 09:50:14;;;;;;;73.30;36.47;;;14.40;41.10;;;;;;4983160;28;20061;-43
2022/03/24 09:52:42;;;;;;;59.33;33.05;;;14.50;41.20;;;;;;4982109;28;20517;-44
2022/03/24 09:55:10;;;;;;;56.50;32.58;;;14.60;40.10;;;;;;4980248;28;20058;-43
2022/03/24 09:57:38;;;;;;;60.55;33.35;;;14.70;39.10;;;;;;4980787;28;20822;-42
2022/03/24 10:00:07;;;;;;;61.78;35.17;;;14.80;39.00;;;;;;4978017;28;20054;-42
2022/03/24 10:02:35;;;;;;;59.63;33.92;;;14.90;39.10;;;;;;4972956;28;20066;-42
2022/03/24 10:05:08;;;;;;;57.95;32.65;;;15.00;39.00;;;;;;4982203;28;20518;-46
2022/03/24 10:07:44;;;;;;;62.35;34.63;;;15.00;38.70;;;;;;4981647;28;20054;-42
2022/03/24 10:10:24;;;;;;;64.30;35.30;;;15.10;38.20;;;;;;4980597;28;20062;-45
2022/03/24 10:12:52;;;;;;;57.63;33.67;;;15.20;37.80;;;;;;4980995;28;20061;-42
2022/03/24 10:15:20;;;;;;;63.47;31.52;;;15.30;38.00;;;;;;4979144;28;20050;-44
2022/03/24 10:17:51;;;;;;;60.95;32.88;;;15.40;38.10;;;;;;4980422;28;20053;-42
2022/03/24 10:20:21;;;;;;;56.60;32.50;;;15.40;37.80;;;;;;4982042;28;20147;-43
2022/03/24 10:22:56;;;;;;;59.13;32.97;;;15.50;37.60;;;;;;4981527;28;20498;-42
2022/03/24 10:25:26;;;;;;;60.17;32.92;;;15.50;37.50;;;;;;4979573;28;20050;-42
2022/03/24 10:28:04;;;;;;;54.50;32.22;;;15.60;37.40;;;;;;4972973;28;20775;-44
2022/03/24 10:30:47;;;;;;;59.00;33.58;;;15.70;36.60;;;;;;4971976;28;20643;-42
2022/03/24 10:33:27;;;;;;;47.17;29.42;;;15.70;36.40;;;;;;4978118;28;20053;-42
2022/03/24 10:36:13;;;;;;;46.63;28.98;;;15.80;36.60;;;;;;4976298;28;20054;-42
2022/03/24 10:38:43;;;;;;;53.92;31.95;;;15.90;36.50;;;;;;4978410;28;20058;-42
2022/03/24 10:41:19;;;;;;;54.00;31.00;;;15.90;35.60;;;;;;4982269;28;20062;-43
2022/03/24 10:43:49;;;;;;;44.90;28.23;;;15.90;35.50;;;;;;4979944;28;20066;-43
2022/03/24 10:46:18;;;;;;;50.58;28.63;;;16.00;35.80;;;;;;4976864;28;20046;-42
2022/03/24 10:48:48;;;;;;;48.17;29.42;;;16.10;36.00;;;;;;4973720;28;20054;-42
2022/03/24 10:51:24;;;;;;;53.70;31.80;;;16.10;35.90;;;;;;4976727;28;20057;-42
2022/03/24 10:53:55;;;;;;;48.50;28.13;;;16.20;35.00;;;;;;4977292;28;20054;-42
2022/03/24 10:56:32;;;;;;;54.38;29.60;;;16.30;34.20;;;;;;4981212;28;20057;-42
2022/03/24 10:59:04;;;;;;;51.72;29.80;;;16.30;34.00;;;;;;4983247;28;20058;-42
2022/03/24 11:01:36;;;;;;;50.95;30.13;;;16.40;35.10;;;;;;4982113;28;20070;-42
2022/03/24 11:04:07;;;;;;;56.97;30.23;;;16.50;34.00;;;;;;4978022;28;20059;-42
2022/03/24 11:06:36;;;;;;;56.97;31.58;;;16.60;33.90;;;;;;4979681;28;20414;-42
2022/03/24 11:09:04;;;;;;;54.88;31.30;;;16.60;33.50;;;;;;4983019;28;20462;-42
2022/03/24 11:11:36;;;;;;;47.03;28.77;;;16.70;32.50;;;;;;4980242;28;20054;-45
2022/03/24 11:14:06;;;;;;;55.45;30.98;;;16.70;32.20;;;;;;4979590;28;20061;-42
2022/03/24 11:16:35;;;;;;;56.60;31.45;;;16.80;32.50;;;;;;4981199;28;20046;-42
2022/03/24 11:19:15;;;;;;;50.83;29.27;;;16.80;32.30;;;;;;4982017;28;20059;-43
2022/03/24 11:22:03;;;;;;;51.15;28.17;;;16.90;33.20;;;;;;4981882;28;20495;-43
2022/03/24 11:24:34;;;;;;;52.47;28.75;;;16.90;33.50;;;;;;4975491;28;20533;-42
2022/03/24 11:27:02;;;;;;;54.28;30.38;;;17.00;33.00;;;;;;4982281;28;20059;-43
2022/03/24 11:29:30;;;;;;;50.80;27.30;;;17.10;32.60;;;;;;4981625;28;20046;-45
2022/03/24 11:31:59;;;;;;;51.78;28.08;;;17.10;32.90;;;;;;4982695;28;20069;-42
2022/03/24 11:34:30;;;;;;;53.40;29.20;;;17.20;33.20;;;;;;4980555;28;20422;-46
2022/03/24 11:37:04;;;;;;;58.67;29.10;;;17.20;32.40;;;;;;4979521;28;20050;-42
2022/03/24 11:39:34;;;;;;;52.10;28.83;;;17.20;32.60;;;;;;4983905;28;20054;-42
2022/03/24 11:42:02;;;;;;;49.92;26.55;;;17.30;32.40;;;;;;4985449;28;20676;-42
2022/03/24 11:44:42;;;;;;;58.50;28.02;;;17.30;31.50;;;;;;4982140;28;20058;-42
2022/03/24 11:47:15;;;;;;;53.03;28.70;;;17.40;31.20;;;;;;4985497;28;20053;-45
2022/03/24 11:49:42;;;;;;;55.42;28.40;;;17.40;32.00;;;;;;4985398;28;20062;-43
2022/03/24 11:52:27;;;;;;;57.35;26.27;;;17.50;32.30;;;;;;4985211;28;20054;-45
2022/03/24 11:54:56;;;;;;;;;;;17.50;31.60;;;;;;4984590;28;20069;-42
2022/03/24 11:57:29;;;;;;;49.95;26.77;;;17.60;32.10;;;;;;4985035;28;19928;-43
2022/03/24 12:00:38;;;;;;;46.80;25.77;;;17.70;31.40;;;;;;4985217;28;20058;-42
2022/03/24 12:03:41;;;;;;;44.17;25.20;;;17.70;31.00;;;;;;4984254;28;20058;-42
2022/03/24 12:06:08;;;;;;;48.45;25.88;;;17.70;31.80;;;;;;4985844;28;20418;-45
2022/03/24 12:08:48;;;;;;;53.17;27.83;;;17.80;31.70;;;;;;4981668;28;20062;-42
2022/03/24 12:11:44;;;;;;;49.47;28.30;;;17.80;30.70;;;;;;4986199;28;20537;-42
2022/03/24 12:14:14;;;;;;;55.70;30.35;;;17.90;30.40;;;;;;4983678;28;20498;-46
2022/03/24 12:16:43;;;;;;;55.25;29.38;;;17.90;30.40;;;;;;4985344;28;20414;-46
2022/03/24 12:19:38;;;;;;;51.63;30.67;;;18.00;30.90;;;;;;4985376;28;20396;-42
2022/03/24 12:22:36;;;;;;;56.45;32.13;;;18.00;30.70;;;;;;4983513;28;20065;-42
2022/03/24 12:25:28;;;;;;;47.88;29.40;;;18.00;30.60;;;;;;4969033;28;20144;-49
2022/03/24 12:27:59;;;;;;;55.42;29.42;;;18.10;31.20;;;;;;4984846;28;20384;-42
2022/03/24 12:30:27;;;;;;;61.13;31.48;;;18.10;30.80;;;;;;4986222;28;20050;-43
2022/03/24 12:33:06;;;;;;;66.18;33.25;;;18.10;30.30;;;;;;4984236;28;20054;-42
2022/03/24 12:35:42;;;;;;;67.20;34.63;;;18.10;29.30;;;;;;4983128;28;20062;-42
2022/03/24 12:38:39;;;;;;;62.33;32.33;;;18.10;29.20;;;;;;4982876;28;20491;-44
2022/03/24 12:41:32;;;;;;;63.28;31.52;;;18.10;29.60;;;;;;4984007;28;20055;-45
2022/03/24 12:44:05;;;;;;;53.20;28.83;;;18.10;29.30;;;;;;4976024;28;20066;-42
2022/03/24 12:46:42;;;;;;;48.30;27.02;;;18.20;29.70;;;;;;4976161;28;20065;-42
2022/03/24 12:49:26;;;;;;;59.85;29.88;;;18.20;29.70;;;;;;4974426;28;20058;-43
2022/03/24 12:52:01;;;;;;;50.55;30.33;;;18.30;29.70;;;;;;4974333;28;20354;-42
2022/03/24 12:54:31;;;;;;;50.72;29.70;;;18.30;29.30;;;;;;4978419;28;20054;-42